Time;durP1;ratioP1;P1;durP2;ratioP2;P2;SDS_P1;SDS_P2;PMS_P1;PMS_P2;Temp;Humidity;BMP_temperature;BMP_pressure;BME280_temperature;BME280_humidity;BME280_pressure;Samples;Min_cycle;Max_cycle;Signal;HPM_P1;HPM_P2
2023/11/30 00:00:11;;;;;;;0.20;0.10;;;;;;;4.86;100.00;98983.44;5045574;28;20493;-56
2023/11/30 00:02:37;;;;;;;0.20;0.10;;;;;;;4.80;100.00;98988.84;5052443;28;20473;-57
2023/11/30 00:05:07;;;;;;;0.20;0.10;;;;;;;4.89;100.00;98992.13;5052122;28;20939;-57
2023/11/30 00:07:33;;;;;;;0.20;0.10;;;;;;;4.92;100.00;98997.28;5051819;28;20532;-56
2023/11/30 00:10:01;;;;;;;0.20;0.10;;;;;;;4.66;100.00;99000.63;5051662;28;20570;-57
2023/11/30 00:12:27;;;;;;;0.20;0.10;;;;;;;4.80;100.00;98987.13;5038188;28;20828;-56
2023/11/30 00:14:54;;;;;;;0.20;0.10;;;;;;;4.76;100.00;98986.31;5046141;28;20462;-56
2023/11/30 00:17:20;;;;;;;0.20;0.17;;;;;;;4.76;100.00;98995.97;5052047;28;20561;-56
2023/11/30 00:19:47;;;;;;;0.30;0.10;;;;;;;4.72;100.00;98991.72;5038577;28;20523;-56
2023/11/30 00:22:13;;;;;;;0.20;0.20;;;;;;;4.79;100.00;98997.66;5051929;28;20913;-56
2023/11/30 00:24:40;;;;;;;0.20;0.10;;;;;;;4.71;100.00;98993.47;5051118;28;20458;-56
2023/11/30 00:27:06;;;;;;;0.20;0.10;;;;;;;4.79;100.00;99001.16;5038220;28;20570;-56
2023/11/30 00:29:33;;;;;;;0.63;0.63;;;;;;;4.81;100.00;98983.59;5051430;28;20454;-57
2023/11/30 00:31:59;;;;;;;0.20;0.10;;;;;;;4.60;100.00;98992.03;5051926;28;20530;-57
2023/11/30 00:34:26;;;;;;;0.20;0.20;;;;;;;4.72;100.00;98973.28;5051646;28;20447;-57
2023/11/30 00:36:52;;;;;;;0.20;0.20;;;;;;;4.60;100.00;98971.81;5051621;28;20470;-57
2023/11/30 00:39:19;;;;;;;0.20;0.10;;;;;;;4.49;100.00;98968.59;5051467;28;20467;-57
2023/11/30 00:41:45;;;;;;;0.20;0.13;;;;;;;4.65;100.00;98956.78;5051835;28;20495;-57
2023/11/30 00:44:12;;;;;;;0.20;0.20;;;;;;;4.34;100.00;98943.56;5037913;28;20467;-57
2023/11/30 00:46:38;;;;;;;0.20;0.10;;;;;;;4.06;100.00;98932.00;5051711;28;20466;-57
2023/11/30 00:49:05;;;;;;;0.20;0.10;;;;;;;4.15;100.00;98939.66;5038076;28;20459;-57
2023/11/30 00:51:31;;;;;;;0.20;0.10;;;;;;;4.48;100.00;98932.66;5051763;28;20550;-57
2023/11/30 00:53:58;;;;;;;0.20;0.20;;;;;;;4.51;100.00;98942.25;5066822;28;20871;-57
2023/11/30 00:56:24;;;;;;;8.60;8.13;;;;;;;4.59;100.00;98948.19;5051559;28;20498;-57
2023/11/30 00:58:51;;;;;;;0.20;0.20;;;;;;;4.49;100.00;98957.22;5051240;28;20453;-57
2023/11/30 01:01:17;;;;;;;0.20;0.10;;;;;;;4.56;100.00;98948.28;5051401;28;20918;-57
2023/11/30 01:03:44;;;;;;;0.20;0.20;;;;;;;4.19;100.00;98964.09;5051137;28;20474;-57
2023/11/30 01:06:10;;;;;;;0.20;0.17;;;;;;;4.31;100.00;98967.31;5066690;28;20455;-57
2023/11/30 01:08:37;;;;;;;0.20;0.10;;;;;;;4.57;100.00;98969.28;5037887;28;20900;-57
2023/11/30 01:11:04;;;;;;;0.30;0.10;;;;;;;4.60;100.00;98958.66;5051230;28;20447;-57
2023/11/30 01:13:30;;;;;;;0.20;0.10;;;;;;;4.58;100.00;98957.00;5038001;28;20458;-56
2023/11/30 01:15:56;;;;;;;0.20;0.20;;;;;;;4.71;100.00;98955.75;5051442;28;20533;-57
2023/11/30 01:18:23;;;;;;;0.20;0.10;;;;;;;4.82;100.00;98952.84;5048161;28;20471;-57
2023/11/30 01:20:49;;;;;;;0.20;0.10;;;;;;;4.85;100.00;98956.25;5041130;28;20501;-57
2023/11/30 01:23:16;;;;;;;0.20;0.20;;;;;;;4.52;100.00;98955.34;5066765;28;20450;-57
2023/11/30 01:25:42;;;;;;;0.20;0.10;;;;;;;4.63;100.00;98952.47;5050971;28;20450;-56
2023/11/30 01:28:09;;;;;;;0.20;0.10;;;;;;;4.48;100.00;98961.63;5036370;28;21089;-57
2023/11/30 01:30:35;;;;;;;0.20;0.13;;;;;;;4.43;100.00;98958.25;5050927;28;20451;-57
2023/11/30 01:33:01;;;;;;;0.20;0.20;;;;;;;4.48;100.00;98956.34;5037822;28;20480;-57
2023/11/30 01:35:29;;;;;;;0.20;0.10;;;;;;;4.56;100.00;98949.13;5051456;28;20459;-57
2023/11/30 01:37:56;;;;;;;0.20;0.10;;;;;;;4.64;100.00;98946.28;5051156;28;20470;-57
2023/11/30 01:40:23;;;;;;;0.20;0.10;;;;;;;4.62;100.00;98938.44;5040404;28;21003;-57
2023/11/30 01:42:50;;;;;;;0.20;0.10;;;;;;;4.60;100.00;98931.50;5052491;28;20454;-57
2023/11/30 01:45:16;;;;;;;0.20;0.20;;;;;;;4.35;100.00;98929.50;5054878;28;20454;-57
2023/11/30 01:47:44;;;;;;;0.20;0.13;;;;;;;4.40;100.00;98924.13;5054934;28;20470;-57
2023/11/30 01:50:11;;;;;;;0.20;0.10;;;;;;;4.54;100.00;98919.38;5045871;28;20965;-57
2023/11/30 01:52:38;;;;;;;0.20;0.17;;;;;;;4.73;100.00;98917.09;5054690;28;21033;-57
2023/11/30 01:55:04;;;;;;;0.20;0.10;;;;;;;4.82;100.00;98916.88;5054925;28;20451;-57
2023/11/30 01:57:31;;;;;;;0.20;0.13;;;;;;;4.70;100.00;98901.41;5054646;28;20462;-57
2023/11/30 01:59:58;;;;;;;0.20;0.20;;;;;;;4.65;100.00;98898.88;5069493;28;20458;-57
2023/11/30 02:02:25;;;;;;;0.20;0.10;;;;;;;4.61;100.00;98897.25;5041338;28;20455;-58
2023/11/30 02:04:52;;;;;;;0.20;0.10;;;;;;;4.63;100.00;98894.56;5054767;28;20451;-57
2023/11/30 02:07:20;;;;;;;0.20;0.10;;;;;;;4.67;100.00;98893.59;5054040;28;21017;-58
2023/11/30 02:09:46;;;;;;;0.20;0.20;;;;;;;4.65;100.00;98888.34;5054399;28;20482;-58
2023/11/30 02:12:13;;;;;;;0.20;0.20;;;;;;;4.49;100.00;98887.03;5047354;28;20451;-58
2023/11/30 02:14:40;;;;;;;0.20;0.20;;;;;;;4.36;100.00;98877.75;5046909;28;20454;-58
2023/11/30 02:17:06;;;;;;;0.20;0.20;;;;;;;4.23;100.00;98884.22;5054458;28;20474;-58
2023/11/30 02:19:33;;;;;;;0.20;0.20;;;;;;;4.08;100.00;98882.84;5041881;28;20456;-57
2023/11/30 02:21:59;;;;;;;0.20;0.20;;;;;;;3.94;100.00;98885.81;5053859;28;20493;-57
2023/11/30 02:24:25;;;;;;;0.20;0.10;;;;;;;3.81;100.00;98873.88;5054137;28;20825;-57
2023/11/30 02:26:52;;;;;;;0.20;0.10;;;;;;;3.49;100.00;98882.53;5040404;28;20532;-57
2023/11/30 02:29:18;;;;;;;0.20;0.10;;;;;;;3.61;100.00;98882.25;5054625;28;20446;-57
2023/11/30 02:31:45;;;;;;;0.20;0.10;;;;;;;3.77;100.00;98881.00;5053935;28;20950;-57
2023/11/30 02:34:12;;;;;;;0.20;0.10;;;;;;;4.07;100.00;98875.88;5054240;28;20538;-57
2023/11/30 02:36:38;;;;;;;0.20;0.10;;;;;;;4.24;100.00;98876.28;5051667;28;20506;-57
2023/11/30 02:39:05;;;;;;;0.20;0.10;;;;;;;4.07;100.00;98873.25;5053962;28;20468;-57
2023/11/30 02:41:31;;;;;;;0.20;0.10;;;;;;;4.18;100.00;98876.47;5053713;28;20490;-57
2023/11/30 02:43:57;;;;;;;0.20;0.10;;;;;;;4.06;100.00;98875.00;5053745;28;20482;-58
2023/11/30 02:46:24;;;;;;;0.20;0.13;;;;;;;4.01;100.00;98878.66;5053648;28;20481;-57
2023/11/30 02:48:50;;;;;;;0.20;0.10;;;;;;;4.06;100.00;98880.28;5053170;28;20460;-57
2023/11/30 02:51:17;;;;;;;0.20;0.10;;;;;;;4.10;100.00;98886.31;5041075;28;20443;-57
2023/11/30 02:53:43;;;;;;;0.20;0.10;;;;;;;4.16;100.00;98879.13;5053590;28;20825;-57
2023/11/30 02:56:10;;;;;;;0.20;0.20;;;;;;;4.20;100.00;98876.44;5053525;28;20447;-57
2023/11/30 02:58:37;;;;;;;0.20;0.10;;;;;;;4.13;100.00;98870.47;5053423;28;20895;-57
2023/11/30 03:01:03;;;;;;;0.20;0.10;;;;;;;4.18;100.00;98865.94;5045302;28;20514;-57
2023/11/30 03:03:30;;;;;;;0.20;0.10;;;;;;;3.98;100.00;98862.97;5046701;28;20466;-57
2023/11/30 03:05:56;;;;;;;0.20;0.20;;;;;;;4.06;100.00;98864.50;5049395;28;20500;-57
2023/11/30 03:08:23;;;;;;;0.20;0.10;;;;;;;4.19;100.00;98859.78;5044059;28;20557;-57
2023/11/30 03:10:50;;;;;;;0.20;0.10;;;;;;;4.31;100.00;98851.56;5040729;28;20453;-57
2023/11/30 03:13:17;;;;;;;0.20;0.10;;;;;;;4.30;100.00;98854.25;5039989;28;20466;-58
2023/11/30 03:15:45;;;;;;;0.77;0.77;;;;;;;4.42;100.00;98846.91;5053506;28;20483;-58
2023/11/30 03:18:12;;;;;;;0.20;0.10;;;;;;;4.29;100.00;98836.75;5052080;28;21051;-57
2023/11/30 03:20:38;;;;;;;0.20;0.10;;;;;;;4.32;100.00;98841.91;5040653;28;20478;-58
2023/11/30 03:23:05;;;;;;;0.20;0.10;;;;;;;4.35;100.00;98834.81;5053123;28;20516;-57
2023/11/30 03:25:32;;;;;;;0.20;0.10;;;;;;;4.30;100.00;98817.44;5053352;28;20461;-58
2023/11/30 03:27:59;;;;;;;0.20;0.10;;;;;;;4.33;100.00;98818.19;5052750;28;20486;-57
2023/11/30 03:30:26;;;;;;;0.20;0.10;;;;;;;4.28;100.00;98817.47;5052994;28;20530;-58
2023/11/30 03:32:55;;;;;;;0.20;0.10;;;;;;;4.20;100.00;98816.81;5039831;28;20806;-57
2023/11/30 03:35:21;;;;;;;0.20;0.10;;;;;;;4.15;100.00;98821.34;5051004;28;20452;-57
2023/11/30 03:37:49;;;;;;;0.20;0.20;;;;;;;4.15;100.00;98823.97;5037704;28;20467;-57
2023/11/30 03:40:16;;;;;;;0.20;0.10;;;;;;;4.14;100.00;98819.63;5041931;28;20457;-58
2023/11/30 03:42:42;;;;;;;0.20;0.10;;;;;;;4.02;100.00;98827.81;5052723;28;20998;-58
2023/11/30 03:45:09;;;;;;;0.20;0.20;;;;;;;4.07;100.00;98824.16;5052972;28;20453;-58
2023/11/30 03:47:35;;;;;;;0.20;0.10;;;;;;;3.98;100.00;98818.28;5050328;28;20485;-58
2023/11/30 03:50:02;;;;;;;0.20;0.10;;;;;;;3.99;100.00;98820.03;5041282;28;20462;-58
2023/11/30 03:52:28;;;;;;;0.20;0.10;;;;;;;4.08;100.00;98819.75;5038930;28;20478;-58
2023/11/30 03:54:55;;;;;;;0.20;0.10;;;;;;;4.14;100.00;98822.25;5052716;28;20457;-57
2023/11/30 03:57:21;;;;;;;0.20;0.10;;;;;;;3.98;100.00;98820.94;5051950;28;20486;-58
2023/11/30 03:59:48;;;;;;;0.20;0.10;;;;;;;4.14;100.00;98817.00;5052645;28;20804;-58
2023/11/30 04:02:14;;;;;;;0.20;0.10;;;;;;;4.19;100.00;98825.59;5052256;28;20490;-58
2023/11/30 04:04:41;;;;;;;0.20;0.20;;;;;;;4.23;100.00;98821.97;5066825;28;20963;-58
2023/11/30 04:07:08;;;;;;;0.20;0.10;;;;;;;4.25;100.00;98819.31;5048534;28;20475;-58
2023/11/30 04:09:37;;;;;;;0.20;0.10;;;;;;;4.14;100.00;98819.63;5043288;28;20504;-57
2023/11/30 04:12:04;;;;;;;0.30;0.10;;;;;;;4.08;100.00;98817.13;5047520;28;20539;-57
2023/11/30 04:14:30;;;;;;;0.20;0.10;;;;;;;3.97;100.00;98812.16;5043594;28;20454;-57
2023/11/30 04:16:56;;;;;;;0.20;0.10;;;;;;;3.98;100.00;98805.16;5052066;28;20546;-57
2023/11/30 04:19:26;;;;;;;0.20;0.20;;;;;;;3.94;100.00;98814.00;5040156;28;20447;-57
2023/11/30 04:21:53;;;;;;;0.20;0.10;;;;;;;3.96;100.00;98805.16;5050573;28;20944;-57
2023/11/30 04:24:19;;;;;;;0.20;0.10;;;;;;;3.99;100.00;98805.09;5039924;28;20459;-57
2023/11/30 04:26:46;;;;;;;0.30;0.10;;;;;;;4.04;100.00;98804.97;5049384;28;20479;-57
2023/11/30 04:29:12;;;;;;;0.20;0.10;;;;;;;4.10;100.00;98802.16;5052056;28;20541;-57
2023/11/30 04:31:39;;;;;;;0.20;0.20;;;;;;;4.06;100.00;98803.16;5051657;28;20457;-57
2023/11/30 04:34:05;;;;;;;0.20;0.20;;;;;;;4.00;100.00;98803.34;5051797;28;20457;-57
2023/11/30 04:36:31;;;;;;;0.20;0.10;;;;;;;4.03;100.00;98806.75;5051830;28;20471;-57
2023/11/30 04:38:58;;;;;;;0.30;0.10;;;;;;;3.98;100.00;98800.75;5067438;28;20980;-57
2023/11/30 04:41:24;;;;;;;0.20;0.10;;;;;;;4.11;100.00;98796.91;5051921;28;20519;-57
2023/11/30 04:43:51;;;;;;;0.20;0.10;;;;;;;4.07;100.00;98792.59;5051662;28;20546;-58
2023/11/30 04:46:17;;;;;;;0.20;0.10;;;;;;;4.05;100.00;98786.53;5050665;28;20451;-57
2023/11/30 04:48:44;;;;;;;0.20;0.10;;;;;;;4.12;100.00;98782.84;5039740;28;20459;-57
2023/11/30 04:51:10;;;;;;;0.20;0.10;;;;;;;4.27;100.00;98784.19;5044935;28;20443;-57
2023/11/30 04:53:36;;;;;;;0.20;0.10;;;;;;;4.34;100.00;98780.47;5043457;28;20821;-57
2023/11/30 04:56:03;;;;;;;0.20;0.10;;;;;;;4.27;100.00;98780.72;5049725;28;20449;-57
2023/11/30 04:58:30;;;;;;;0.23;0.13;;;;;;;4.40;100.00;98777.69;5049597;28;21016;-57
2023/11/30 05:00:56;;;;;;;0.20;0.10;;;;;;;4.37;100.00;98779.53;5051305;28;20569;-56
2023/11/30 05:03:22;;;;;;;0.20;0.17;;;;;;;4.30;100.00;98783.25;5051526;28;20450;-57
2023/11/30 05:05:49;;;;;;;0.20;0.10;;;;;;;4.49;100.00;98775.69;5051424;28;20790;-57
2023/11/30 05:08:16;;;;;;;0.20;0.10;;;;;;;4.57;100.00;98778.97;5038290;28;20820;-57
2023/11/30 05:10:42;;;;;;;0.20;0.10;;;;;;;4.59;100.00;98782.41;5051509;28;20462;-57
2023/11/30 05:13:09;;;;;;;0.20;0.10;;;;;;;4.57;100.00;98781.59;5066924;28;20878;-56
2023/11/30 05:15:38;;;;;;;0.20;0.10;;;;;;;4.51;100.00;98777.34;5054255;28;20461;-57
2023/11/30 05:18:05;;;;;;;0.30;0.20;;;;;;;4.46;100.00;98777.50;5054607;28;20471;-57
2023/11/30 05:20:32;;;;;;;0.20;0.10;;;;;;;4.44;100.00;98774.06;5054478;28;20451;-56
2023/11/30 05:23:00;;;;;;;0.20;0.17;;;;;;;4.46;100.00;98781.91;5055143;28;20501;-57
2023/11/30 05:25:30;;;;;;;0.20;0.10;;;;;;;4.40;100.00;98785.59;5055591;28;20534;-57
2023/11/30 05:27:58;;;;;;;0.20;0.20;;;;;;;4.50;100.00;98787.94;5052535;28;20482;-57
2023/11/30 05:30:25;;;;;;;0.20;0.10;;;;;;;4.49;100.00;98780.94;5044268;28;20446;-57
2023/11/30 05:32:52;;;;;;;0.20;0.20;;;;;;;4.54;100.00;98787.81;5055434;28;20442;-57
2023/11/30 05:35:19;;;;;;;0.20;0.10;;;;;;;4.42;100.00;98783.75;5055339;28;20450;-57
2023/11/30 05:37:46;;;;;;;0.30;0.10;;;;;;;4.35;100.00;98773.44;5052565;28;20487;-56
2023/11/30 05:40:12;;;;;;;0.20;0.20;;;;;;;4.37;100.00;98783.00;5044346;28;20478;-57
2023/11/30 05:42:40;;;;;;;0.20;0.10;;;;;;;4.31;100.00;98785.81;5054815;28;20486;-57
2023/11/30 05:45:06;;;;;;;0.20;0.10;;;;;;;4.32;100.00;98779.66;5055301;28;20478;-57
2023/11/30 05:47:33;;;;;;;0.20;0.10;;;;;;;4.24;100.00;98780.75;5052026;28;20506;-57
2023/11/30 05:50:00;;;;;;;0.20;0.10;;;;;;;4.25;100.00;98783.38;5044524;28;20458;-56
2023/11/30 05:52:26;;;;;;;0.20;0.20;;;;;;;4.05;100.00;98772.53;5041497;28;20447;-57
2023/11/30 05:54:54;;;;;;;0.20;0.13;;;;;;;3.84;100.00;98776.59;5054742;28;21009;-57
2023/11/30 05:57:21;;;;;;;0.20;0.20;;;;;;;3.66;100.00;98783.16;5055094;28;20574;-57
2023/11/30 05:59:47;;;;;;;0.20;0.10;;;;;;;3.76;100.00;98782.03;5054779;28;20455;-56
2023/11/30 06:02:16;;;;;;;0.20;0.10;;;;;;;3.69;100.00;98779.59;5054706;28;20547;-56
2023/11/30 06:04:51;;;;;;;0.20;0.13;;;;;;;3.68;100.00;98775.25;5054240;28;20462;-56
2023/11/30 06:07:19;;;;;;;0.20;0.20;;;;;;;3.63;100.00;98774.50;5049381;28;20884;-56
2023/11/30 06:09:45;;;;;;;0.20;0.20;;;;;;;3.94;100.00;98770.19;5046775;28;20458;-56
2023/11/30 06:12:12;;;;;;;0.20;0.10;;;;;;;4.09;100.00;98761.00;5048387;28;20463;-57
2023/11/30 06:14:39;;;;;;;0.20;0.10;;;;;;;4.19;100.00;98765.13;5047276;28;20450;-57
2023/11/30 06:17:05;;;;;;;0.20;0.10;;;;;;;4.22;100.00;98764.16;5054395;28;21046;-57
2023/11/30 06:19:32;;;;;;;0.20;0.10;;;;;;;4.10;100.00;98744.31;5049771;28;20455;-56
2023/11/30 06:22:00;;;;;;;0.20;0.13;;;;;;;4.21;100.00;98750.16;5053831;28;20485;-56
2023/11/30 06:24:28;;;;;;;0.20;0.10;;;;;;;4.22;100.00;98754.50;5054258;28;20451;-56
2023/11/30 06:26:55;;;;;;;0.20;0.10;;;;;;;4.05;100.00;98751.50;5040027;28;20489;-56
2023/11/30 06:29:23;;;;;;;0.20;0.10;;;;;;;3.91;100.00;98751.88;5054222;28;20447;-56
2023/11/30 06:31:50;;;;;;;0.20;0.20;;;;;;;3.74;100.00;98749.69;5054227;28;20476;-57
2023/11/30 06:34:16;;;;;;;0.20;0.17;;;;;;;3.85;100.00;98742.38;5053738;28;20537;-56
2023/11/30 06:36:43;;;;;;;0.20;0.10;;;;;;;3.97;100.00;98738.53;5039582;28;20475;-57
2023/11/30 06:39:09;;;;;;;0.20;0.10;;;;;;;4.06;100.00;98734.81;5053642;28;20812;-56
2023/11/30 06:41:36;;;;;;;0.30;0.20;;;;;;;4.06;100.00;98738.31;5067460;28;21086;-57
2023/11/30 06:44:02;;;;;;;0.20;0.20;;;;;;;4.22;100.00;98733.47;5040300;28;20602;-56
2023/11/30 06:46:29;;;;;;;0.20;0.10;;;;;;;4.25;100.00;98741.31;5053369;28;20521;-57
2023/11/30 06:48:56;;;;;;;0.20;0.10;;;;;;;4.09;100.00;98745.25;5040252;28;20448;-55
2023/11/30 06:51:22;;;;;;;0.20;0.10;;;;;;;4.04;100.00;98740.13;5051137;28;20454;-56
2023/11/30 06:53:49;;;;;;;0.20;0.20;;;;;;;4.08;100.00;98754.91;5051729;28;20478;-57
2023/11/30 06:56:15;;;;;;;0.20;0.10;;;;;;;4.05;100.00;98757.63;5052957;28;20504;-56
2023/11/30 06:58:42;;;;;;;0.20;0.10;;;;;;;3.85;100.00;98749.41;5053950;28;20477;-56
2023/11/30 07:01:11;;;;;;;0.20;0.10;;;;;;;3.90;100.00;98750.16;5045803;28;20455;-56
2023/11/30 07:03:38;;;;;;;0.20;0.10;;;;;;;3.82;100.00;98754.72;5048547;28;20829;-56
2023/11/30 07:06:09;;;;;;;0.20;0.10;;;;;;;3.77;100.00;98751.38;5053469;28;20442;-56
2023/11/30 07:08:35;;;;;;;0.20;0.10;;;;;;;3.50;100.00;98745.06;5052685;28;20454;-56
2023/11/30 07:11:06;;;;;;;0.20;0.10;;;;;;;3.59;100.00;98752.72;5042724;28;20529;-56
2023/11/30 07:13:33;;;;;;;0.20;0.10;;;;;;;3.58;100.00;98756.25;5045665;28;20474;-56
2023/11/30 07:15:59;;;;;;;0.20;0.20;;;;;;;3.50;100.00;98755.56;5042807;28;20461;-56
2023/11/30 07:18:26;;;;;;;0.20;0.10;;;;;;;3.52;100.00;98746.72;5050118;28;20509;-56
2023/11/30 07:20:52;;;;;;;0.20;0.10;;;;;;;3.51;100.00;98749.41;5041851;28;20455;-56
2023/11/30 07:23:19;;;;;;;0.20;0.20;;;;;;;3.54;100.00;98746.69;5052939;28;20932;-57
2023/11/30 07:25:46;;;;;;;0.30;0.20;;;;;;;3.55;100.00;98743.16;5043667;28;20917;-57
2023/11/30 07:28:12;;;;;;;0.30;0.20;;;;;;;3.50;100.00;98747.69;5052420;28;20514;-57
2023/11/30 07:30:41;;;;;;;0.20;0.10;;;;;;;3.28;100.00;98750.81;5043004;28;20543;-57
2023/11/30 07:33:09;;;;;;;0.20;0.10;;;;;;;3.21;100.00;98744.00;5050230;28;20446;-57
2023/11/30 07:35:39;;;;;;;0.20;0.10;;;;;;;3.21;100.00;98735.25;5041531;28;20467;-57
2023/11/30 07:38:05;;;;;;;0.20;0.10;;;;;;;3.04;100.00;98735.69;5044082;28;20856;-56
2023/11/30 07:40:32;;;;;;;0.20;0.10;;;;;;;3.11;100.00;98739.88;5049268;28;20447;-57
2023/11/30 07:43:00;;;;;;;0.20;0.10;;;;;;;3.06;100.00;98744.38;5051847;28;20983;-56
2023/11/30 07:45:31;;;;;;;0.20;0.20;;;;;;;2.99;100.00;98753.28;5041051;28;20474;-57
2023/11/30 07:47:59;;;;;;;0.20;0.10;;;;;;;2.98;100.00;98756.78;5045149;28;20495;-57
2023/11/30 07:50:27;;;;;;;0.20;0.13;;;;;;;3.10;100.00;98756.50;5048829;28;20830;-57
2023/11/30 07:52:54;;;;;;;0.20;0.10;;;;;;;3.08;100.00;98753.06;5053262;28;21015;-57
2023/11/30 07:55:20;;;;;;;0.20;0.10;;;;;;;2.99;100.00;98745.41;5045369;28;20519;-57
2023/11/30 07:57:48;;;;;;;0.20;0.20;;;;;;;2.97;100.00;98736.69;5052082;28;20475;-57
2023/11/30 08:00:15;;;;;;;0.20;0.10;;;;;;;2.94;100.00;98734.16;5052269;28;20451;-56
2023/11/30 08:02:42;;;;;;;0.20;0.10;;;;;;;3.03;100.00;98738.34;5044971;28;20483;-56
2023/11/30 08:05:09;;;;;;;0.20;0.10;;;;;;;3.10;100.00;98738.13;5045953;28;20461;-57
2023/11/30 08:07:35;;;;;;;0.20;0.10;;;;;;;3.11;100.00;98736.38;5044789;28;20529;-56
2023/11/30 08:10:04;;;;;;;0.20;0.10;;;;;;;3.16;100.00;98734.53;5046612;28;20509;-56
2023/11/30 08:12:31;;;;;;;0.20;0.20;;;;;;;3.17;100.00;98734.47;5049354;28;20464;-53
2023/11/30 08:14:58;;;;;;;0.20;0.10;;;;;;;3.19;100.00;98732.69;5051845;28;20462;-55
2023/11/30 08:17:25;;;;;;;0.20;0.20;;;;;;;3.36;100.00;98732.25;5050963;28;20477;-55
2023/11/30 08:19:51;;;;;;;0.30;0.20;;;;;;;3.58;100.00;98737.00;5038149;28;20985;-54
2023/11/30 08:22:18;;;;;;;0.20;0.10;;;;;;;3.71;100.00;98749.78;5046334;28;20578;-55
2023/11/30 08:24:44;;;;;;;0.20;0.10;;;;;;;3.74;100.00;98768.06;5051751;28;20453;-56
2023/11/30 08:27:11;;;;;;;0.73;0.73;;;;;;;3.77;100.00;98777.66;5051617;28;20612;-56
2023/11/30 08:29:37;;;;;;;0.20;0.20;;;;;;;3.81;100.00;98777.50;5051543;28;20501;-56
2023/11/30 08:32:05;;;;;;;0.20;0.10;;;;;;;3.70;100.00;98765.53;5058007;28;20458;-56
2023/11/30 08:34:31;;;;;;;0.20;0.10;;;;;;;3.64;100.00;98765.72;5047345;28;20927;-56
2023/11/30 08:36:58;;;;;;;0.20;0.10;;;;;;;3.70;100.00;98768.19;5051393;28;20844;-55
2023/11/30 08:39:24;;;;;;;0.20;0.10;;;;;;;3.59;100.00;98770.25;5051552;28;21533;-55
2023/11/30 08:41:53;;;;;;;0.20;0.13;;;;;;;3.75;100.00;98767.19;5051673;28;20526;-55
2023/11/30 08:44:22;;;;;;;0.20;0.10;;;;;;;3.82;100.00;98763.47;5051612;28;20455;-54
2023/11/30 08:46:49;;;;;;;0.20;0.20;;;;;;;3.87;100.00;98763.38;5051680;28;21062;-54
2023/11/30 08:49:16;;;;;;;11.43;7.00;;;;;;;3.91;100.00;98759.75;5038128;28;20465;-54
2023/11/30 08:51:43;;;;;;;0.20;0.10;;;;;;;4.13;100.00;98760.06;5051308;28;20450;-55
2023/11/30 08:54:11;;;;;;;0.20;0.10;;;;;;;4.19;100.00;98759.88;5046798;28;20470;-55
2023/11/30 08:56:37;;;;;;;0.20;0.10;;;;;;;4.20;100.00;98752.84;5048491;28;20516;-54
2023/11/30 08:59:04;;;;;;;0.20;0.10;;;;;;;4.22;100.00;98761.53;5063342;28;20586;-55
2023/11/30 09:01:32;;;;;;;0.23;0.17;;;;;;;4.32;100.00;98763.03;5042609;28;20457;-54
2023/11/30 09:04:05;;;;;;;0.20;0.10;;;;;;;4.31;100.00;98767.41;5047028;28;20491;-55
2023/11/30 09:06:33;;;;;;;0.23;0.10;;;;;;;4.35;100.00;98753.25;5043661;28;20470;-54
2023/11/30 09:09:00;;;;;;;0.20;0.10;;;;;;;4.27;100.00;98751.78;5040307;28;20575;-54
2023/11/30 09:11:30;;;;;;;0.20;0.10;;;;;;;4.43;100.00;98751.28;5045794;28;20459;-54
2023/11/30 09:13:57;;;;;;;0.20;0.20;;;;;;;4.36;100.00;98739.22;5038254;28;20454;-54
2023/11/30 09:16:25;;;;;;;0.20;0.10;;;;;;;4.31;100.00;98737.63;5051464;28;20502;-55
2023/11/30 09:18:54;;;;;;;0.20;0.20;;;;;;;4.00;100.00;98720.09;5038395;28;20936;-54
2023/11/30 09:21:21;;;;;;;0.20;0.10;;;;;;;4.11;100.00;98725.03;5045239;28;20447;-55
2023/11/30 09:23:49;;;;;;;0.30;0.20;;;;;;;4.23;100.00;98723.81;5051766;28;20932;-54
2023/11/30 09:26:20;;;;;;;0.20;0.10;;;;;;;4.36;100.00;98722.56;5042695;28;20533;-54
2023/11/30 09:28:46;;;;;;;0.20;0.10;;;;;;;4.31;100.00;98730.59;5039340;28;20486;-55
2023/11/30 09:31:13;;;;;;;0.30;0.20;;;;;;;4.37;100.00;98729.53;5051400;28;20443;-55
2023/11/30 09:33:40;;;;;;;0.20;0.10;;;;;;;4.43;100.00;98726.75;5051121;28;20457;-55
2023/11/30 09:36:07;;;;;;;0.23;0.10;;;;;;;4.46;100.00;98729.28;5045716;28;20541;-54
2023/11/30 09:38:34;;;;;;;0.20;0.10;;;;;;;3.96;100.00;98702.66;5051218;22;20481;-84
2023/11/30 09:41:05;;;;;;;0.20;0.10;;;;;;;4.34;100.00;98730.50;5045247;28;20845;-86
2023/11/30 09:43:32;;;;;;;0.20;0.20;;;;;;;4.36;100.00;98726.06;5048260;28;20483;-84
2023/11/30 09:45:59;;;;;;;0.20;0.10;;;;;;;4.50;100.00;98732.69;5032599;28;20439;-87
2023/11/30 09:48:25;;;;;;;0.20;0.10;;;;;;;4.61;100.00;98736.72;5049552;28;20482;-86
2023/11/30 09:50:52;;;;;;;0.20;0.20;;;;;;;4.56;100.00;98730.75;5040654;28;20435;-86
2023/11/30 09:53:19;;;;;;;0.20;0.10;;;;;;;4.52;100.00;98721.19;5025907;28;20446;-87
2023/11/30 09:55:46;;;;;;;0.20;0.10;;;;;;;4.42;100.00;98723.25;5024029;28;20491;-87
2023/11/30 09:58:13;;;;;;;0.20;0.10;;;;;;;4.36;100.00;98730.47;5021948;28;20486;-87
2023/11/30 10:00:39;;;;;;;0.20;0.20;;;;;;;4.39;100.00;98733.03;5035657;28;20445;-87
2023/11/30 10:03:08;;;;;;;0.20;0.13;;;;;;;4.27;100.00;98726.34;5031091;28;20487;-86
2023/11/30 10:05:34;;;;;;;0.20;0.10;;;;;;;4.30;100.00;98723.63;5026338;28;20447;-87
2023/11/30 10:08:02;;;;;;;0.20;0.20;;;;;;;4.33;100.00;98714.78;5046098;28;20837;-87
2023/11/30 10:10:29;;;;;;;0.20;0.20;;;;;;;4.36;100.00;98717.31;5032347;28;20483;-86
2023/11/30 10:12:56;;;;;;;0.20;0.10;;;;;;;4.42;100.00;98723.25;5016950;28;20559;-86
2023/11/30 10:15:22;;;;;;;3.10;2.57;;;;;;;4.49;100.00;98723.94;5047289;28;20451;-86
2023/11/30 10:17:49;;;;;;;0.20;0.10;;;;;;;4.55;100.00;98718.50;5037353;28;20452;-87
2023/11/30 10:20:18;;;;;;;0.20;0.20;;;;;;;4.68;100.00;98721.63;5035820;28;20455;-86
2023/11/30 10:22:44;;;;;;;0.20;0.13;;;;;;;4.59;100.00;98698.22;5064690;28;20498;-87
2023/11/30 10:25:12;;;;;;;0.20;0.13;;;;;;;4.60;100.00;98699.94;5052426;28;20474;-86
2023/11/30 10:27:40;;;;;;;0.30;0.30;;;;;;;4.35;100.00;98713.81;5047517;28;20436;-87
2023/11/30 10:30:10;;;;;;;0.20;0.10;;;;;;;4.22;100.00;98724.72;5051711;28;20481;-87
2023/11/30 10:32:39;;;;;;;0.20;0.10;;;;;;;4.41;100.00;98718.91;5028251;28;20459;-87
2023/11/30 10:35:14;;;;;;;0.20;0.10;;;;;;;4.58;100.00;98710.50;5013355;28;20488;-87
2023/11/30 10:37:47;;;;;;;0.20;0.10;;;;;;;4.66;100.00;98712.91;5016357;28;20470;-88
2023/11/30 10:40:17;;;;;;;0.30;0.20;;;;;;;4.64;100.00;98707.69;5038380;28;20472;-87
2023/11/30 10:42:48;;;;;;;0.20;0.10;;;;;;;4.74;100.00;98703.00;5046904;28;20454;-85
2023/11/30 10:45:15;;;;;;;0.20;0.10;;;;;;;4.77;100.00;98708.19;5026832;28;20867;-86
2023/11/30 10:47:42;;;;;;;0.20;0.10;;;;;;;4.73;100.00;98701.28;5023670;28;20459;-86
2023/11/30 10:50:11;;;;;;;0.20;0.10;;;;;;;4.73;100.00;98701.28;5052675;28;20523;-86
2023/11/30 10:52:39;;;;;;;0.30;0.20;;;;;;;4.76;100.00;98706.47;5048588;28;20534;-86
2023/11/30 10:55:12;;;;;;;0.20;0.20;;;;;;;4.85;100.00;98710.59;5027269;28;20930;-87
2023/11/30 10:57:43;;;;;;;0.20;0.10;;;;;;;4.90;100.00;98706.88;5012308;28;20452;-86
2023/11/30 11:00:14;;;;;;;0.30;0.20;;;;;;;4.85;100.00;98697.44;5036461;28;20868;-86
2023/11/30 11:02:49;;;;;;;0.20;0.10;;;;;;;4.90;100.00;98691.09;5020026;28;20557;-87
2023/11/30 11:05:18;;;;;;;0.20;0.10;;;;;;;4.90;100.00;98696.34;5017445;28;20555;-87
2023/11/30 11:07:50;;;;;;;0.20;0.10;;;;;;;4.80;100.00;98687.06;5055063;28;20804;-87
2023/11/30 11:10:27;;;;;;;0.20;0.20;;;;;;;4.82;100.00;98702.78;5038288;28;20964;-89
2023/11/30 11:12:59;;;;;;;0.20;0.20;;;;;;;4.85;100.00;98703.56;5033384;28;20482;-87
2023/11/30 11:15:29;;;;;;;0.20;0.20;;;;;;;4.84;100.00;98711.50;5051656;28;20459;-86
2023/11/30 11:18:07;;;;;;;0.20;0.20;;;;;;;4.95;100.00;98698.88;5055388;28;20483;-87
2023/11/30 11:20:37;;;;;;;1.07;0.97;;;;;;;4.98;99.45;98681.19;5034085;28;20538;-85
2023/11/30 11:23:03;;;;;;;0.20;0.10;;;;;;;5.03;100.00;98697.69;5043992;28;20598;-86
2023/11/30 11:25:44;;;;;;;0.20;0.10;;;;;;;4.88;100.00;98674.50;5007240;28;20459;-86
2023/11/30 11:28:11;;;;;;;0.20;0.20;;;;;;;4.86;100.00;98680.72;5006301;28;20566;-86
2023/11/30 11:30:43;;;;;;;0.20;0.10;;;;;;;4.93;100.00;98700.66;5027470;28;20462;-86
2023/11/30 11:33:10;;;;;;;0.20;0.10;;;;;;;4.42;100.00;98672.44;5034666;28;20452;-86